Time;durP1;ratioP1;P1;durP2;ratioP2;P2;SDS_P1;SDS_P2;PMS_P1;PMS_P2;Temp;Humidity;BMP_temperature;BMP_pressure;BME280_temperature;BME280_humidity;BME280_pressure;Samples;Min_cycle;Max_cycle;Signal;HPM_P1;HPM_P2
2021/01/29 00:02:00;;;;;;;22.85;19.08;;;;;;;0.31;76.15;98847.22;10546326;28;20060;-67
2021/01/29 00:07:02;;;;;;;19.63;17.73;;;;;;;0.27;76.14;98836.91;10546010;28;20043;-66
2021/01/29 00:12:04;;;;;;;21.52;19.33;;;;;;;0.27;76.09;98832.63;10545669;28;20081;-67
2021/01/29 00:17:05;;;;;;;19.85;17.67;;;;;;;0.40;75.88;98829.03;10547155;28;20523;-68
2021/01/29 00:22:07;;;;;;;20.80;18.73;;;;;;;0.33;75.82;98836.88;10545549;28;20170;-67
2021/01/29 00:27:08;;;;;;;19.42;17.48;;;;;;;0.46;75.92;98844.47;10544313;28;20036;-67
2021/01/29 00:32:09;;;;;;;18.88;17.08;;;;;;;0.46;75.62;98844.47;10545425;28;20435;-65
2021/01/29 00:37:11;;;;;;;25.70;20.00;;;;;;;0.30;75.96;98845.50;10545619;28;20390;-65
2021/01/29 00:42:12;;;;;;;22.13;19.75;;;;;;;0.25;76.43;98853.28;10544207;28;20044;-67
2021/01/29 00:47:13;;;;;;;21.42;18.85;;;;;;;0.41;75.85;98854.00;10526030;28;20044;-66
2021/01/29 00:52:15;;;;;;;23.10;20.23;;;;;;;0.30;76.03;98863.59;10525891;28;20458;-66
2021/01/29 00:57:16;;;;;;;20.95;18.85;;;;;;;0.31;76.20;98839.47;10545001;28;20040;-67
2021/01/29 01:02:32;;;;;;;20.33;18.33;;;;;;;0.31;76.03;98831.72;10526246;28;20044;-66
2021/01/29 01:07:33;;;;;;;21.70;18.98;;;;;;;0.52;75.14;98833.22;10526562;28;20040;-65
2021/01/29 01:12:53;;;;;;;27.65;21.23;;;;;;;0.26;75.86;98841.22;10544196;28;20052;-67
2021/01/29 01:18:09;;;;;;;32.83;22.45;;;;;;;0.27;76.26;98822.28;10526478;28;20044;-67
2021/01/29 01:23:33;;;;;;;23.40;21.10;;;;;;;0.59;75.77;98813.34;10542738;28;20470;-66
2021/01/29 01:28:34;;;;;;;25.88;21.23;;;;;;;0.70;74.57;98811.47;10544008;28;20405;-66
2021/01/29 01:33:43;;;;;;;24.80;21.42;;;;;;;0.63;74.86;98807.25;10525723;28;20435;-67
2021/01/29 01:38:53;;;;;;;24.67;21.90;;;;;;;0.69;74.48;98805.44;10523523;28;20048;-67
2021/01/29 01:43:59;;;;;;;22.05;19.83;;;;;;;0.42;75.49;98795.41;10524301;28;20048;-67
2021/01/29 01:49:23;;;;;;;21.85;19.73;;;;;;;0.25;75.90;98783.50;10543512;28;20040;-67
2021/01/29 01:54:57;;;;;;;20.52;18.60;;;;;;;0.30;75.81;98777.44;10526018;28;20052;-67
2021/01/29 02:00:07;;;;;;;19.58;17.88;;;;;;;0.41;75.88;98783.38;10541925;28;20055;-66
2021/01/29 02:05:33;;;;;;;21.13;19.17;;;;;;;0.27;76.06;98780.94;10542484;28;20044;-66
2021/01/29 02:11:05;;;;;;;24.25;21.50;;;;;;;0.00;76.54;98779.47;10523973;28;20424;-67
2021/01/29 02:17:23;;;;;;;27.77;22.63;;;;;;;-0.07;76.90;98763.16;10541439;28;20048;-67
2021/01/29 02:23:11;;;;;;;23.40;20.75;;;;;;;0.30;75.83;98757.63;10484649;28;20056;-68
2021/01/29 02:29:10;;;;;;;24.08;21.52;;;;;;;0.16;75.93;98759.50;10542358;28;20044;-67
2021/01/29 02:34:36;;;;;;;22.05;20.02;;;;;;;0.45;75.10;98774.69;10523408;28;20048;-66
2021/01/29 02:39:54;;;;;;;26.42;20.15;;;;;;;0.26;75.83;98792.13;10523587;28;20054;-66
2021/01/29 02:45:33;;;;;;;23.73;21.25;;;;;;;0.09;76.47;98781.09;10522791;28;20039;-66
2021/01/29 02:51:18;;;;;;;27.63;21.48;;;;;;;0.13;76.52;98757.78;10530100;28;20523;-67
2021/01/29 02:57:22;;;;;;;23.92;21.52;;;;;;;0.01;77.02;98731.25;10516332;28;20044;-67
2021/01/29 03:02:59;;;;;;;21.70;19.42;;;;;;;0.20;76.18;98718.09;10531497;28;20417;-68
2021/01/29 03:08:23;;;;;;;20.67;18.77;;;;;;;0.44;75.65;98713.50;10531817;28;20127;-67
2021/01/29 03:14:07;;;;;;;21.48;19.60;;;;;;;0.32;75.53;98709.34;10549980;28;20036;-68
2021/01/29 03:19:32;;;;;;;20.15;18.17;;;;;;;0.48;75.14;98702.25;10548663;28;20044;-67
2021/01/29 03:24:55;;;;;;;21.05;18.88;;;;;;;0.45;74.89;98697.16;10548559;28;20056;-67
2021/01/29 03:30:21;;;;;;;25.25;20.85;;;;;;;0.32;75.44;98699.03;10547970;28;20518;-67
2021/01/29 03:35:51;;;;;;;23.03;20.80;;;;;;;0.45;75.46;98704.91;10548848;28;20051;-67
2021/01/29 03:41:22;;;;;;;22.50;20.25;;;;;;;0.34;75.59;98705.00;10533315;28;20093;-67
2021/01/29 03:47:30;;;;;;;22.85;20.63;;;;;;;0.32;75.56;98711.94;10532689;28;20048;-67
2021/01/29 03:53:48;;;;;;;22.33;20.02;;;;;;;0.29;75.50;98701.63;10340809;28;20042;-65
2021/01/29 03:59:35;;;;;;;22.10;20.02;;;;;;;0.35;75.28;98700.69;10332367;28;20061;-67
2021/01/29 04:05:18;;;;;;;20.00;18.17;;;;;;;0.59;74.81;98682.31;10539268;22;20044;-62
2021/01/29 04:10:54;;;;;;;21.13;19.23;;;;;;;0.43;75.13;98679.06;10499810;28;20052;-62
2021/01/29 04:16:50;;;;;;;21.83;19.88;;;;;;;0.56;74.94;98665.97;10524847;28;20135;-62
2021/01/29 04:21:55;;;;;;;22.98;20.73;;;;;;;0.54;75.19;98659.97;10544370;28;20040;-62
2021/01/29 04:27:14;;;;;;;19.95;17.88;;;;;;;0.56;74.91;98656.47;10542868;28;20044;-63
2021/01/29 04:32:21;;;;;;;22.35;20.23;;;;;;;0.70;74.92;98633.00;10542912;28;20089;-63
2021/01/29 04:37:27;;;;;;;18.83;17.13;;;;;;;0.62;74.40;98619.31;10542706;28;20059;-62
2021/01/29 04:42:59;;;;;;;18.55;16.95;;;;;;;0.40;74.92;98603.25;10524018;28;20048;-63
2021/01/29 04:48:18;;;;;;;18.60;16.77;;;;;;;0.70;74.69;98599.38;10542863;28;20489;-62
2021/01/29 04:53:28;;;;;;;23.33;21.02;;;;;;;0.48;75.08;98597.09;10541772;28;20040;-63
2021/01/29 04:58:48;;;;;;;24.35;20.80;;;;;;;0.39;75.23;98568.81;10541964;28;20119;-62
2021/01/29 05:05:00;;;;;;;31.08;22.88;;;;;;;0.36;75.45;98548.19;10540944;28;20055;-63
2021/01/29 05:10:48;;;;;;;23.63;21.15;;;;;;;0.66;75.10;98533.06;10534663;28;20051;-62
2021/01/29 05:16:29;;;;;;;32.80;23.05;;;;;;;0.53;74.84;98521.22;10541696;28;20040;-63
2021/01/29 05:21:43;;;;;;;24.10;21.67;;;;;;;0.61;74.48;98527.97;10522142;28;20050;-62
2021/01/29 05:27:09;;;;;;;23.05;20.73;;;;;;;0.39;74.60;98514.53;10540221;28;20123;-62
2021/01/29 05:32:31;;;;;;;22.50;20.35;;;;;;;0.15;75.56;98499.41;10540182;28;20058;-62
2021/01/29 05:38:07;;;;;;;23.30;21.10;;;;;;;0.12;75.08;98505.44;10541486;28;20062;-62
2021/01/29 05:43:39;;;;;;;24.52;21.90;;;;;;;0.14;75.19;98495.97;10540169;28;20526;-63
2021/01/29 05:49:11;;;;;;;24.20;21.63;;;;;;;0.53;73.99;98483.28;10539326;28;20151;-61
2021/01/29 05:54:58;;;;;;;30.95;23.65;;;;;;;0.19;75.35;98473.50;10539695;28;20043;-64
2021/01/29 06:00:21;;;;;;;27.35;23.17;;;;;;;0.20;75.11;98456.25;10539296;28;20070;-62
2021/01/29 06:05:37;;;;;;;30.30;24.88;;;;;;;0.11;75.22;98449.50;10539159;28;20068;-62
2021/01/29 06:11:26;;;;;;;33.00;23.30;;;;;;;0.20;75.30;98448.50;10539098;28;20499;-62
2021/01/29 06:16:55;;;;;;;33.60;25.10;;;;;;;0.26;74.94;98448.41;10539345;28;20059;-62
2021/01/29 06:22:16;;;;;;;32.15;23.88;;;;;;;0.08;75.43;98433.19;10539422;28;20101;-63
2021/01/29 06:27:17;;;;;;;31.65;24.90;;;;;;;0.02;76.21;98420.38;10529895;28;20135;-62
2021/01/29 06:32:27;;;;;;;40.30;27.45;;;;;;;0.20;76.02;98413.19;10547867;28;20044;-62
2021/01/29 06:38:05;;;;;;;34.80;25.30;;;;;;;0.20;75.43;98400.25;10548399;28;20040;-62
2021/01/29 06:43:25;;;;;;;;;;;;;;;0.15;75.77;98375.38;10547826;28;20118;-63
2021/01/29 06:49:00;;;;;;;35.28;25.10;;;;;;;0.19;75.39;98369.28;10547817;28;20396;-62
2021/01/29 06:54:11;;;;;;;29.27;24.10;;;;;;;0.18;75.55;98365.00;10547538;28;20048;-62
2021/01/29 06:59:21;;;;;;;25.27;21.67;;;;;;;0.30;75.10;98366.50;10550135;28;20040;-61
2021/01/29 07:04:46;;;;;;;28.13;23.42;;;;;;;0.25;75.66;98362.25;10551012;28;20549;-62
2021/01/29 07:10:00;;;;;;;33.58;23.60;;;;;;;0.22;76.07;98358.88;10551270;28;20044;-62
2021/01/29 07:15:26;;;;;;;28.23;22.15;;;;;;;0.22;75.33;98356.28;10533320;28;20421;-64
2021/01/29 07:20:50;;;;;;;23.95;21.58;;;;;;;0.35;74.95;98349.19;10552704;28;20071;-62
2021/01/29 07:26:34;;;;;;;24.38;22.00;;;;;;;0.38;74.59;98347.41;10551549;28;20149;-62
2021/01/29 07:32:03;;;;;;;27.80;22.13;;;;;;;0.38;74.54;98337.06;10551037;28;20076;-63
2021/01/29 07:37:19;;;;;;;23.30;20.80;;;;;;;0.35;74.72;98319.00;10551720;28;20059;-62
2021/01/29 07:42:38;;;;;;;26.13;21.02;;;;;;;0.34;75.14;98298.38;10551555;28;20093;-62
2021/01/29 07:48:18;;;;;;;22.02;20.05;;;;;;;0.48;74.16;98281.72;10551286;28;20074;-61
2021/01/29 07:53:38;;;;;;;21.77;19.75;;;;;;;0.38;74.34;98264.69;10504792;28;20052;-61
2021/01/29 07:59:24;;;;;;;21.02;19.02;;;;;;;0.49;74.40;98262.75;10507916;28;20044;-61
2021/01/29 08:04:45;;;;;;;25.58;18.58;;;;;;;0.31;74.67;98246.75;10480953;28;20091;-61
2021/01/29 08:09:54;;;;;;;19.48;17.67;;;;;;;0.36;75.08;98244.94;10489536;28;20052;-62
2021/01/29 08:15:11;;;;;;;21.27;19.25;;;;;;;0.35;75.41;98223.38;10517240;28;20521;-62
2021/01/29 08:20:32;;;;;;;20.92;18.85;;;;;;;0.55;75.18;98220.41;10548975;28;20123;-62
2021/01/29 08:26:01;;;;;;;19.10;17.30;;;;;;;0.58;74.59;98206.59;10547525;28;20101;-62
2021/01/29 08:31:40;;;;;;;20.83;19.13;;;;;;;0.43;75.42;98198.25;10543536;28;20044;-62
2021/01/29 08:37:11;;;;;;;21.40;19.23;;;;;;;0.44;75.28;98188.75;10543171;28;20056;-63
2021/01/29 08:42:24;;;;;;;19.50;17.90;;;;;;;0.41;75.33;98184.50;10543338;28;20090;-59
2021/01/29 08:47:55;;;;;;;20.52;18.63;;;;;;;0.41;75.51;98176.75;10542225;28;20054;-61
2021/01/29 08:53:49;;;;;;;18.88;17.08;;;;;;;0.42;75.35;98170.69;10542169;28;20077;-60
2021/01/29 08:58:59;;;;;;;22.27;17.67;;;;;;;0.26;75.96;98161.56;10541934;28;20405;-60
2021/01/29 09:04:08;;;;;;;19.92;17.88;;;;;;;0.30;75.95;98150.28;10523306;28;20048;-61
2021/01/29 09:09:17;;;;;;;22.20;20.05;;;;;;;0.31;75.92;98139.06;10522731;28;20059;-61
2021/01/29 09:14:56;;;;;;;21.10;19.08;;;;;;;0.25;75.78;98136.59;10542111;28;20516;-62
2021/01/29 09:20:04;;;;;;;25.45;20.05;;;;;;;0.09;76.28;98125.75;10540900;28;20087;-62
2021/01/29 09:25:23;;;;;;;25.38;21.08;;;;;;;0.01;76.89;98113.88;10542230;28;20097;-62
2021/01/29 09:30:31;;;;;;;21.92;19.70;;;;;;;0.04;76.78;98109.47;10522255;28;20091;-62
2021/01/29 09:35:41;;;;;;;21.08;18.95;;;;;;;0.11;76.16;98111.06;10498782;28;20146;-61
2021/01/29 09:41:12;;;;;;;19.77;17.92;;;;;;;0.23;76.08;98104.78;10498195;28;20098;-62
2021/01/29 09:46:20;;;;;;;18.17;16.60;;;;;;;0.05;76.12;98093.09;10289705;28;20429;-61
2021/01/29 09:51:35;;;;;;;15.32;14.02;;;;;;;-0.09;76.26;98095.09;10290539;28;20062;-61
2021/01/29 09:56:44;;;;;;;17.08;15.43;;;;;;;-0.12;76.13;98087.44;10290037;28;20059;-60
2021/01/29 10:02:15;;;;;;;17.10;15.50;;;;;;;-0.12;76.43;98088.28;10289360;28;20055;-61
2021/01/29 10:07:22;;;;;;;18.45;15.60;;;;;;;-0.21;76.61;98080.72;10387339;22;20120;-65
2021/01/29 10:12:26;;;;;;;16.50;14.82;;;;;;;-0.19;76.67;98068.63;10457630;28;20041;-65
2021/01/29 10:17:33;;;;;;;16.70;15.30;;;;;;;-0.19;76.76;98055.69;10438988;28;20541;-67
2021/01/29 10:23:07;;;;;;;16.83;15.43;;;;;;;-0.21;76.74;98041.97;10457467;28;20049;-65
2021/01/29 10:28:17;;;;;;;15.45;14.15;;;;;;;-0.28;76.78;98030.06;10439842;28;20041;-67
2021/01/29 10:33:28;;;;;;;15.30;13.93;;;;;;;0.03;76.00;98025.13;10458365;28;20103;-67
2021/01/29 10:38:38;;;;;;;16.20;14.55;;;;;;;0.01;75.75;98007.97;10457605;28;20112;-65
2021/01/29 10:43:55;;;;;;;15.05;13.65;;;;;;;-0.01;75.74;98006.25;10458454;28;20482;-67
2021/01/29 10:49:08;;;;;;;14.90;13.27;;;;;;;0.03;75.54;97993.28;10456793;28;20041;-67
2021/01/29 10:54:10;;;;;;;15.63;14.23;;;;;;;-0.06;75.68;97989.16;10439495;28;20053;-65
2021/01/29 10:59:22;;;;;;;15.50;14.00;;;;;;;-0.15;76.06;97984.19;10456074;28;20079;-66
2021/01/29 11:04:28;;;;;;;12.65;11.55;;;;;;;-0.05;75.88;97983.09;10438676;28;20384;-66
2021/01/29 11:09:33;;;;;;;13.57;12.32;;;;;;;-0.17;75.83;97976.50;10458739;28;20037;-66
2021/01/29 11:14:42;;;;;;;13.82;12.55;;;;;;;-0.08;75.28;97975.44;10467670;28;20096;-67
2021/01/29 11:19:49;;;;;;;12.27;11.07;;;;;;;-0.14;75.15;97963.50;10446084;28;20068;-68
2021/01/29 11:25:00;;;;;;;12.05;10.95;;;;;;;-0.17;75.20;97955.84;10447620;28;20064;-66
2021/01/29 11:30:01;;;;;;;13.15;11.95;;;;;;;-0.40;75.75;97952.88;10464352;28;20120;-66
2021/01/29 11:35:37;;;;;;;11.95;10.88;;;;;;;-0.42;75.71;97941.75;10447523;28;20053;-67
2021/01/29 11:41:01;;;;;;;14.15;12.10;;;;;;;-0.33;75.25;97947.56;10464230;28;20140;-66
2021/01/29 11:46:26;;;;;;;12.23;11.23;;;;;;;-0.28;74.82;97948.31;10463090;28;20474;-65
2021/01/29 11:51:33;;;;;;;10.35;9.40;;;;;;;-0.11;73.77;97931.59;10463360;28;20041;-67
2021/01/29 11:56:40;;;;;;;11.70;10.60;;;;;;;-0.43;75.08;97940.06;10462675;28;20564;-67
2021/01/29 12:01:50;;;;;;;11.73;10.63;;;;;;;-0.39;74.99;97929.63;10463164;28;20098;-68
2021/01/29 12:07:05;;;;;;;13.35;12.15;;;;;;;-0.59;75.82;97930.03;10462848;28;20478;-69
2021/01/29 12:12:29;;;;;;;13.88;12.57;;;;;;;-0.22;75.12;97929.28;10444923;28;20124;-68
2021/01/29 12:17:32;;;;;;;13.43;12.00;;;;;;;-0.39;75.60;97918.47;10432350;28;20478;-67
2021/01/29 12:22:47;;;;;;;13.73;12.52;;;;;;;-0.69;76.50;97913.06;10420033;28;20045;-66
2021/01/29 12:27:55;;;;;;;13.55;12.35;;;;;;;-0.41;76.05;97905.56;10425017;28;20037;-66
2021/01/29 12:33:08;;;;;;;11.15;10.15;;;;;;;-0.38;76.03;97902.09;10405205;28;20084;-67
2021/01/29 12:38:24;;;;;;;11.10;10.20;;;;;;;-0.25;75.65;97906.09;10420624;28;20038;-67
2021/01/29 12:43:36;;;;;;;11.70;10.50;;;;;;;-0.37;75.50;97899.47;10402543;28;20049;-66
2021/01/29 12:48:47;;;;;;;11.23;10.23;;;;;;;-0.34;75.76;97896.81;10420074;28;20049;-67
2021/01/29 12:54:15;;;;;;;11.85;10.65;;;;;;;-0.14;75.63;97892.91;10402254;28;20054;-66
2021/01/29 12:59:33;;;;;;;9.93;9.02;;;;;;;-0.12;74.98;97886.84;10419713;28;20041;-67
2021/01/29 13:05:19;;;;;;;10.13;9.15;;;;;;;-0.17;74.87;97893.84;10420162;28;20049;-67
2021/01/29 13:10:43;;;;;;;12.35;8.82;;;;;;;-0.35;75.65;97891.69;10252375;28;20054;-66
2021/01/29 13:16:08;;;;;;;10.32;9.43;;;;;;;-0.53;75.98;97882.63;10254334;29;20142;-66
2021/01/29 13:21:24;;;;;;;9.95;9.10;;;;;;;-0.28;76.10;97878.59;10238352;29;20476;-66
2021/01/29 13:26:35;;;;;;;8.40;7.70;;;;;;;-0.23;75.44;97875.91;10252008;29;20572;-67
2021/01/29 13:31:41;;;;;;;8.38;7.68;;;;;;;-0.30;75.38;97874.38;10252276;28;20055;-68
2021/01/29 13:36:59;;;;;;;8.77;8.00;;;;;;;-0.37;75.78;97868.47;10235664;29;20059;-67
2021/01/29 13:42:27;;;;;;;11.00;10.10;;;;;;;-0.60;76.58;97879.31;10412559;28;20054;-66
2021/01/29 13:47:32;;;;;;;9.50;8.70;;;;;;;-0.18;75.90;97876.66;10389641;28;20186;-67
2021/01/29 13:52:35;;;;;;;9.93;9.05;;;;;;;-0.17;75.75;97872.34;10399169;28;20418;-66
2021/01/29 13:57:45;;;;;;;8.32;7.63;;;;;;;-0.03;75.35;97871.13;10416716;28;20077;-65
2021/01/29 14:02:54;;;;;;;8.65;7.93;;;;;;;-0.14;75.69;97859.34;10416967;28;20080;-65
2021/01/29 14:07:59;;;;;;;9.77;8.88;;;;;;;-0.05;75.56;97867.72;10398316;28;20050;-66
2021/01/29 14:13:25;;;;;;;10.45;9.45;;;;;;;0.03;75.63;97862.38;10416421;28;20049;-65
2021/01/29 14:18:38;;;;;;;10.07;9.23;;;;;;;-0.14;75.94;97859.34;10417665;28;20048;-65
2021/01/29 14:23:49;;;;;;;9.63;8.82;;;;;;;-0.15;76.03;97861.09;10416852;28;20132;-65
2021/01/29 14:29:25;;;;;;;10.25;9.38;;;;;;;-0.15;76.09;97855.94;10416658;28;20395;-65
2021/01/29 14:34:47;;;;;;;9.85;9.02;;;;;;;0.04;75.97;97848.56;10251077;29;20071;-64
2021/01/29 14:40:01;;;;;;;10.07;9.25;;;;;;;0.02;75.85;97854.69;10251671;28;20058;-66
2021/01/29 14:45:13;;;;;;;9.48;8.68;;;;;;;0.11;75.49;97857.88;10238004;28;20147;-66
2021/01/29 14:50:36;;;;;;;10.38;9.48;;;;;;;-0.14;76.43;97844.69;10258061;28;20616;-66
2021/01/29 14:56:02;;;;;;;11.40;10.38;;;;;;;-0.47;77.39;97851.50;10258481;29;20507;-66
2021/01/29 15:01:09;;;;;;;11.45;10.45;;;;;;;-0.18;77.17;97852.56;10257459;28;20047;-66
2021/01/29 15:06:16;;;;;;;12.52;11.05;;;;;;;-0.26;77.63;97863.09;10257719;29;20047;-64
2021/01/29 15:11:20;;;;;;;10.57;9.65;;;;;;;-0.07;76.75;97866.94;10381496;28;20093;-66
2021/01/29 15:16:49;;;;;;;10.57;9.68;;;;;;;0.06;76.42;97875.22;10423007;28;20060;-63
2021/01/29 15:21:56;;;;;;;10.85;9.88;;;;;;;-0.04;76.75;97874.63;10415411;28;20085;-63
2021/01/29 15:27:27;;;;;;;11.43;10.38;;;;;;;0.28;76.43;97890.22;10404564;28;20045;-63
2021/01/29 15:32:39;;;;;;;10.45;9.55;;;;;;;0.15;76.84;97885.34;10422842;28;20049;-64
2021/01/29 15:37:49;;;;;;;12.20;11.10;;;;;;;0.28;76.49;97897.97;10424351;28;20038;-62
2021/01/29 15:42:51;;;;;;;12.13;11.13;;;;;;;0.13;77.15;97900.00;10424874;28;20501;-62
2021/01/29 15:47:59;;;;;;;10.85;10.05;;;;;;;0.32;76.24;97909.94;10423061;28;20037;-63
2021/01/29 15:53:00;;;;;;;11.63;10.63;;;;;;;0.31;76.18;97924.59;10427439;28;20048;-63
2021/01/29 15:58:02;;;;;;;12.60;11.55;;;;;;;0.29;76.59;97920.31;10448919;28;20050;-63
2021/01/29 16:03:05;;;;;;;11.77;10.68;;;;;;;0.25;76.61;97925.56;10440897;28;20045;-64
2021/01/29 16:08:20;;;;;;;13.38;12.07;;;;;;;0.24;77.17;97930.78;10454594;22;20049;-68
2021/01/29 16:13:30;;;;;;;13.05;11.75;;;;;;;0.27;76.86;97942.75;10409339;28;20045;-68
2021/01/29 16:18:31;;;;;;;12.77;11.65;;;;;;;0.28;76.92;97947.06;10424845;28;20045;-68
2021/01/29 16:23:35;;;;;;;12.93;11.82;;;;;;;0.28;76.95;97945.31;10423863;28;20047;-68
2021/01/29 16:28:42;;;;;;;11.60;10.60;;;;;;;0.28;76.75;97952.22;10406017;28;20056;-68
2021/01/29 16:33:44;;;;;;;12.30;11.20;;;;;;;0.26;76.92;97944.50;10427765;28;20056;-68
2021/01/29 16:38:48;;;;;;;13.27;12.18;;;;;;;0.35;76.67;97946.00;10427091;28;20060;-68
2021/01/29 16:43:52;;;;;;;14.00;12.35;;;;;;;0.54;76.22;97955.03;10427926;28;20053;-68
2021/01/29 16:49:15;;;;;;;19.17;13.85;;;;;;;0.69;75.87;97959.81;10427449;28;20076;-68
2021/01/29 16:54:23;;;;;;;16.85;13.70;;;;;;;0.53;76.38;97967.97;10421560;28;20037;-68
2021/01/29 16:59:26;;;;;;;18.15;14.50;;;;;;;0.43;76.36;97970.78;10425824;28;20040;-68
2021/01/29 17:04:37;;;;;;;15.05;13.75;;;;;;;0.30;77.19;97976.28;10421470;28;20081;-68
2021/01/29 17:09:41;;;;;;;15.85;14.35;;;;;;;0.29;77.04;97972.00;10404720;28;20045;-68
2021/01/29 17:14:43;;;;;;;16.20;14.73;;;;;;;0.19;77.41;97979.13;10426938;28;20059;-69
2021/01/29 17:19:45;;;;;;;16.08;14.60;;;;;;;0.19;77.70;97977.41;10407817;28;20065;-69
2021/01/29 17:24:52;;;;;;;18.77;16.80;;;;;;;0.24;77.76;97969.53;10404973;28;20055;-69
2021/01/29 17:30:00;;;;;;;17.50;15.90;;;;;;;0.40;77.17;97968.28;10422498;28;20041;-68
2021/01/29 17:35:26;;;;;;;18.15;16.55;;;;;;;0.39;77.24;97973.47;10422045;28;20446;-68
2021/01/29 17:40:32;;;;;;;;;;;;;;;0.38;77.36;97980.38;10421733;28;20463;-68
2021/01/29 17:45:36;;;;;;;15.73;14.30;;;;;;;0.40;77.10;97980.34;10421206;28;19921;-69
2021/01/29 17:50:44;;;;;;;15.95;14.60;;;;;;;0.48;76.93;97984.44;10420466;28;20115;-69
2021/01/29 17:55:49;;;;;;;16.45;14.75;;;;;;;0.55;76.69;97990.31;10419634;28;20045;-68
2021/01/29 18:01:08;;;;;;;18.45;15.48;;;;;;;0.58;76.92;97992.00;10420679;28;20049;-69
2021/01/29 18:06:19;;;;;;;17.88;16.08;;;;;;;0.68;76.51;97983.13;10418494;28;20140;-69
2021/01/29 18:11:27;;;;;;;17.60;15.90;;;;;;;0.51;76.74;97973.19;10419415;28;20037;-68
2021/01/29 18:16:35;;;;;;;19.67;17.88;;;;;;;0.41;77.38;97976.91;10402647;28;20045;-68
2021/01/29 18:21:44;;;;;;;24.45;20.27;;;;;;;0.48;77.37;97965.50;10420720;28;20048;-68
2021/01/29 18:26:46;;;;;;;27.98;20.90;;;;;;;0.35;77.38;97977.03;10416157;28;20076;-69
2021/01/29 18:31:47;;;;;;;23.92;21.60;;;;;;;0.39;77.97;97970.91;10418157;28;20053;-68
2021/01/29 18:36:50;;;;;;;24.80;20.92;;;;;;;0.60;77.16;97974.69;10404630;28;20116;-69
2021/01/29 18:41:52;;;;;;;22.83;20.45;;;;;;;0.90;77.08;97967.91;10395187;28;20400;-68
2021/01/29 18:46:54;;;;;;;22.83;19.42;;;;;;;0.68;77.37;97970.19;10382626;28;20045;-68
2021/01/29 18:51:56;;;;;;;24.98;19.75;;;;;;;0.60;77.08;97972.97;10383609;28;20042;-69
2021/01/29 18:56:58;;;;;;;23.08;20.70;;;;;;;0.60;77.59;97995.38;10382068;28;20108;-69
2021/01/29 19:02:01;;;;;;;22.52;19.60;;;;;;;0.65;77.44;97970.25;10379249;28;20484;-68
2021/01/29 19:07:02;;;;;;;25.13;22.15;;;;;;;0.73;77.38;97973.50;10377933;28;20050;-67
2021/01/29 19:12:04;;;;;;;27.42;24.50;;;;;;;0.72;77.60;97958.88;10375530;28;20092;-69
2021/01/29 19:17:06;;;;;;;26.60;21.60;;;;;;;0.76;77.38;97952.75;10373818;28;20444;-68
2021/01/29 19:22:08;;;;;;;24.27;21.75;;;;;;;0.78;77.21;97948.38;10374752;28;20069;-68
2021/01/29 19:27:10;;;;;;;25.70;21.98;;;;;;;0.40;77.74;97957.97;10375733;28;20089;-68
2021/01/29 19:32:11;;;;;;;22.00;19.95;;;;;;;0.42;78.01;97958.75;10379448;28;20507;-68
2021/01/29 19:37:13;;;;;;;31.33;22.50;;;;;;;0.35;78.38;97962.34;10379165;28;20038;-68
2021/01/29 19:42:14;;;;;;;23.67;21.33;;;;;;;0.94;77.40;97954.84;10378946;28;20053;-68
2021/01/29 19:47:15;;;;;;;25.63;22.90;;;;;;;0.41;78.01;97946.72;10410261;28;20034;-69
2021/01/29 19:52:17;;;;;;;21.05;19.27;;;;;;;0.58;78.13;97943.72;10404750;28;20083;-67
2021/01/29 19:57:20;;;;;;;20.75;18.85;;;;;;;0.75;77.57;97925.16;10380929;28;20041;-68
2021/01/29 20:02:21;;;;;;;23.50;21.27;;;;;;;0.40;78.08;97934.69;10380787;28;20096;-68
2021/01/29 20:07:23;;;;;;;22.20;20.05;;;;;;;0.26;78.87;97923.81;10380922;28;20154;-69
2021/01/29 20:12:24;;;;;;;21.42;19.55;;;;;;;0.45;78.64;97932.00;10380679;28;20046;-68
2021/01/29 20:17:26;;;;;;;22.83;20.83;;;;;;;0.33;78.53;97922.78;10380300;28;20046;-68
2021/01/29 20:22:28;;;;;;;23.75;20.42;;;;;;;0.26;78.77;97923.81;10380404;28;20054;-68
2021/01/29 20:27:29;;;;;;;27.65;20.52;;;;;;;0.34;78.70;97923.66;10379530;28;20048;-67
2021/01/29 20:32:30;;;;;;;22.00;19.85;;;;;;;0.32;78.78;97928.84;10380700;28;20084;-68
2021/01/29 20:37:32;;;;;;;22.13;20.05;;;;;;;0.66;78.23;97921.09;10378834;28;20484;-68
2021/01/29 20:42:33;;;;;;;22.50;20.40;;;;;;;0.62;77.29;97916.03;10377258;28;20041;-70
2021/01/29 20:47:40;;;;;;;21.60;19.55;;;;;;;0.36;78.14;97917.56;10379133;28;20080;-67
2021/01/29 20:52:42;;;;;;;;;;;;;;;0.32;78.30;97912.50;10378757;28;20042;-69
2021/01/29 20:57:43;;;;;;;22.52;20.10;;;;;;;0.28;78.40;97911.72;10377543;28;19921;-67
2021/01/29 21:02:49;;;;;;;23.27;20.88;;;;;;;0.27;78.58;97920.38;10378186;28;20034;-68
2021/01/29 21:07:50;;;;;;;28.65;25.63;;;;;;;0.22;78.48;97919.63;10377372;28;20034;-68
2021/01/29 21:12:52;;;;;;;26.17;23.63;;;;;;;0.29;78.42;97910.84;10377115;28;20049;-67
2021/01/29 21:17:56;;;;;;;26.50;24.02;;;;;;;0.25;78.40;97906.63;10376609;28;20042;-68
2021/01/29 21:22:58;;;;;;;23.52;17.27;;;;;;;0.49;79.73;97894.84;10377584;28;20141;-68
2021/01/29 21:28:00;;;;;;;14.35;6.05;;;;;;;1.77;81.23;97911.94;10379934;28;20048;-67
2021/01/29 21:33:06;;;;;;;19.40;4.68;;;;;;;2.55;80.40;97910.34;10378845;28;20061;-67
2021/01/29 21:38:14;;;;;;;10.43;3.45;;;;;;;2.96;78.33;97911.50;10379428;28;20506;-67
2021/01/29 21:43:15;;;;;;;5.88;2.53;;;;;;;3.17;77.07;97912.50;10379991;28;20128;-67
2021/01/29 21:48:23;;;;;;;5.43;2.42;;;;;;;3.41;76.53;97916.81;10378208;28;20034;-67
2021/01/29 21:53:26;;;;;;;5.68;2.42;;;;;;;3.49;76.06;97909.56;10376296;28;20053;-67
2021/01/29 21:58:27;;;;;;;4.40;2.00;;;;;;;3.67;76.13;97904.59;10374328;28;20054;-67
2021/01/29 22:03:28;;;;;;;6.43;1.90;;;;;;;3.79;75.53;97902.38;10376686;28;20061;-67
2021/01/29 22:08:30;;;;;;;6.65;1.90;;;;;;;3.89;75.46;97897.66;10442772;23;20051;-66
2021/01/29 22:13:33;;;;;;;5.53;1.58;;;;;;;3.85;75.27;97903.03;10506176;28;20044;-67
2021/01/29 22:18:34;;;;;;;6.13;1.90;;;;;;;3.83;75.22;97895.31;10501046;28;20135;-69
2021/01/29 22:23:36;;;;;;;5.78;1.80;;;;;;;3.87;74.95;97903.84;10504244;28;20128;-66
2021/01/29 22:28:40;;;;;;;5.60;1.90;;;;;;;3.96;74.79;97906.91;10483652;28;20049;-67
2021/01/29 22:33:42;;;;;;;4.10;1.58;;;;;;;3.87;74.96;97902.09;10498691;28;20378;-67
2021/01/29 22:38:44;;;;;;;14.80;1.75;;;;;;;3.94;74.31;97900.06;10500253;28;20044;-66
2021/01/29 22:43:46;;;;;;;6.00;1.83;;;;;;;4.19;74.12;97907.75;10498730;28;20049;-66
2021/01/29 22:48:48;;;;;;;3.67;1.40;;;;;;;4.12;74.07;97904.56;10497934;28;20044;-67
2021/01/29 22:53:49;;;;;;;4.47;1.55;;;;;;;3.89;74.02;97902.00;10497562;28;20103;-66
2021/01/29 22:58:50;;;;;;;3.83;1.67;;;;;;;3.88;74.33;97906.38;10497648;28;20444;-67
2021/01/29 23:03:51;;;;;;;8.95;1.90;;;;;;;3.89;75.15;97902.84;10497364;28;20102;-67
2021/01/29 23:08:53;;;;;;;4.65;1.65;;;;;;;3.82;75.24;97898.81;10504795;28;20120;-67
2021/01/29 23:13:54;;;;;;;5.40;2.90;;;;;;;3.54;75.30;97909.38;10504093;28;20037;-67
2021/01/29 23:19:00;;;;;;;18.30;16.55;;;;;;;2.64;75.24;97917.81;10505610;28;20464;-67
2021/01/29 23:24:01;;;;;;;20.38;18.30;;;;;;;2.25;76.05;97908.69;10504430;28;20048;-67
2021/01/29 23:29:02;;;;;;;18.73;16.90;;;;;;;2.20;76.40;97908.00;10504481;28;20124;-67
2021/01/29 23:34:03;;;;;;;11.45;6.38;;;;;;;2.10;78.54;97909.19;10504892;28;20493;-68
2021/01/29 23:39:06;;;;;;;4.22;2.33;;;;;;;3.20;77.54;97897.66;10504482;28;20068;-68
2021/01/29 23:44:07;;;;;;;6.57;1.92;;;;;;;3.67;74.96;97882.03;10504611;28;20105;-67
2021/01/29 23:49:08;;;;;;;3.55;1.33;;;;;;;3.86;74.27;97887.41;10503595;28;20032;-68
2021/01/29 23:54:09;;;;;;;3.47;1.45;;;;;;;4.21;72.98;97885.16;10501587;28;20051;-67
2021/01/29 23:59:13;;;;;;;3.08;1.30;;;;;;;4.21;72.82;97883.41;10503208;28;20039;-68
